Time;durP1;ratioP1;P1;durP2;ratioP2;P2;SDS_P1;SDS_P2;PMS_P1;PMS_P2;Temp;Humidity;BMP_temperature;BMP_pressure;BME280_temperature;BME280_humidity;BME280_pressure;Samples;Min_cycle;Max_cycle;Signal;HPM_P1;HPM_P2
2022/05/08 00:01:50;;;;;;;900.25;567.60;;;;;;;11.34;45.71;101243.34;1694275;82;20980;-57
2022/05/08 00:04:18;;;;;;;904.97;571.48;;;;;;;11.27;45.87;101243.67;1693530;84;21514;-58
2022/05/08 00:06:45;;;;;;;911.97;564.87;;;;;;;11.17;46.18;101245.61;1692410;84;21128;-65
2022/05/08 00:09:14;;;;;;;952.37;587.27;;;;;;;11.23;46.00;101237.15;1693752;82;21334;-57
2022/05/08 00:11:41;;;;;;;890.08;562.35;;;;;;;11.13;45.81;101236.48;1693423;83;21265;-58
2022/05/08 00:14:09;;;;;;;934.25;569.52;;;;;;;11.14;45.88;101238.95;1694395;82;20928;-56
2022/05/08 00:16:37;;;;;;;932.35;563.05;;;;;;;11.11;46.17;101231.44;1693177;84;20920;-66
2022/05/08 00:19:03;;;;;;;942.00;565.10;;;;;;;11.14;46.25;101238.14;1693112;84;21023;-59
2022/05/08 00:21:31;;;;;;;927.02;571.05;;;;;;;10.96;46.91;101238.28;1692881;83;21052;-59
2022/05/08 00:23:58;;;;;;;934.62;579.70;;;;;;;11.01;47.24;101239.91;1694374;82;21816;-56
2022/05/08 00:26:25;;;;;;;927.65;579.72;;;;;;;11.06;47.25;101240.71;1694112;82;21027;-57
2022/05/08 00:28:53;;;;;;;911.90;569.67;;;;;;;11.18;47.16;101239.44;1692457;84;20920;-57
2022/05/08 00:31:20;;;;;;;943.95;575.58;;;;;;;11.04;47.49;101237.47;1693349;84;21050;-60
2022/05/08 00:33:48;;;;;;;961.45;568.63;;;;;;;11.09;47.15;101241.20;1654851;84;21158;-58
2022/05/08 00:36:15;;;;;;;951.35;571.37;;;;;;;11.01;47.37;101239.09;1693233;83;21164;-56
2022/05/08 00:38:43;;;;;;;946.10;582.67;;;;;;;11.03;47.62;101239.76;1696206;82;21062;-65
2022/05/08 00:41:10;;;;;;;923.15;565.90;;;;;;;10.93;48.05;101244.62;1723201;82;21065;-59
2022/05/08 00:43:40;;;;;;;921.40;569.35;;;;;;;10.93;48.57;101247.72;1723743;81;21054;-65
2022/05/08 00:46:10;;;;;;;901.40;558.35;;;;;;;10.88;48.72;101235.17;1723606;81;21588;-56
2022/05/08 00:48:38;;;;;;;875.53;549.15;;;;;;;10.90;48.71;101239.72;1723746;81;21828;-61
2022/05/08 00:51:11;;;;;;;874.98;529.58;;;;;;;10.74;49.08;101234.48;1723586;82;21461;-56
2022/05/08 00:53:45;;;;;;;807.00;489.63;;;;;;;10.76;49.16;101233.85;1723582;81;22490;-58
2022/05/08 00:56:14;;;;;;;827.88;506.13;;;;;;;10.71;49.37;101229.58;1723127;82;21022;-63
2022/05/08 00:58:42;;;;;;;843.05;519.85;;;;;;;10.77;49.95;101231.56;1715841;82;21149;-55
2022/05/08 01:01:09;;;;;;;847.85;520.60;;;;;;;10.78;50.34;101231.88;1729499;81;21216;-65
2022/05/08 01:03:38;;;;;;;874.50;529.20;;;;;;;10.73;50.67;101223.73;1722895;82;20935;-57
2022/05/08 01:06:09;;;;;;;886.75;541.70;;;;;;;10.67;51.28;101222.56;1723139;82;21544;-57
2022/05/08 01:08:37;;;;;;;881.32;525.12;;;;;;;10.72;51.88;101228.62;1723457;82;21111;-58
2022/05/08 01:11:05;;;;;;;852.25;516.33;;;;;;;10.70;52.74;101220.13;1695382;82;21000;-57
2022/05/08 01:13:32;;;;;;;862.95;525.85;;;;;;;10.77;52.79;101221.13;1693350;84;21130;-57
2022/05/08 01:16:00;;;;;;;884.35;534.40;;;;;;;10.69;51.95;101223.73;1693371;82;21555;-57
2022/05/08 01:18:28;;;;;;;865.58;525.27;;;;;;;10.52;51.57;101220.73;1693738;82;21464;-57
2022/05/08 01:20:57;;;;;;;846.85;519.25;;;;;;;10.51;51.55;101214.71;1694176;82;21051;-58
2022/05/08 01:23:24;;;;;;;845.88;504.50;;;;;;;10.58;52.52;101217.51;1694583;82;21130;-57
2022/05/08 01:25:54;;;;;;;850.98;504.53;;;;;;;10.37;54.19;101217.92;1692886;84;21675;-58
2022/05/08 01:28:22;;;;;;;861.73;512.35;;;;;;;10.38;55.75;101219.08;1694026;82;21046;-56
2022/05/08 01:30:52;;;;;;;900.40;528.02;;;;;;;10.41;56.56;101215.33;1717899;81;20975;-56
2022/05/08 01:33:20;;;;;;;884.35;533.15;;;;;;;10.56;56.85;101206.41;1723681;82;20999;-58
2022/05/08 01:35:49;;;;;;;888.40;529.70;;;;;;;10.33;58.48;101208.30;1712056;82;21007;-56
2022/05/08 01:38:19;;;;;;;860.67;525.05;;;;;;;10.20;60.50;101207.41;1723945;82;21335;-57
2022/05/08 01:40:46;;;;;;;818.35;510.65;;;;;;;10.36;58.88;101206.68;1724196;81;21493;-55
2022/05/08 01:43:13;;;;;;;893.92;524.23;;;;;;;10.30;57.37;101207.80;1724162;81;20983;-56
2022/05/08 01:45:40;;;;;;;950.98;555.35;;;;;;;10.08;57.10;101202.16;1723855;81;21094;-57
2022/05/08 01:48:25;;;;;;;889.17;524.67;;;;;;;10.09;58.39;101205.58;1723298;82;21467;-56
2022/05/08 01:50:57;;;;;;;930.45;550.90;;;;;;;10.07;58.94;101201.00;1723774;82;22187;-55
2022/05/08 01:53:27;;;;;;;924.85;555.92;;;;;;;10.07;58.35;101199.20;1723736;82;21038;-65
2022/05/08 01:55:56;;;;;;;911.97;552.90;;;;;;;9.94;59.38;101207.46;1723700;81;21450;-55
2022/05/08 01:58:27;;;;;;;915.20;538.85;;;;;;;9.77;61.93;101212.23;1724765;81;21006;-55
2022/05/08 02:00:55;;;;;;;;;;;;;;;9.78;64.49;101213.89;1726757;82;20958;-55
2022/05/08 02:03:23;;;;;;;931.35;537.38;;;;;;;9.79;65.74;101208.20;1724175;81;21163;-59
2022/05/08 02:05:51;;;;;;;953.97;558.72;;;;;;;9.97;65.78;101208.95;1723982;82;21070;-56
2022/05/08 02:08:18;;;;;;;924.68;549.38;;;;;;;10.03;66.24;101211.41;1724175;82;21000;-56
2022/05/08 02:10:47;;;;;;;871.25;529.87;;;;;;;10.04;67.31;101207.36;1693719;84;20996;-56
2022/05/08 02:13:15;;;;;;;865.80;502.93;;;;;;;10.06;68.70;101216.30;1694146;84;21087;-64
2022/05/08 02:15:44;;;;;;;836.35;497.10;;;;;;;10.08;67.60;101220.40;1693654;84;20944;-55
2022/05/08 02:18:13;;;;;;;809.92;490.17;;;;;;;10.18;67.49;101219.77;1695488;82;21074;-55
2022/05/08 02:20:42;;;;;;;826.58;507.50;;;;;;;10.18;67.86;101221.56;1694104;84;21750;-55
2022/05/08 02:23:09;;;;;;;810.05;500.90;;;;;;;10.11;68.00;101218.77;1695568;82;20901;-55
2022/05/08 02:25:37;;;;;;;785.27;489.25;;;;;;;10.15;69.51;101219.27;1694102;82;20972;-63
2022/05/08 02:28:05;;;;;;;798.25;474.45;;;;;;;10.22;69.68;101218.97;1693434;84;21429;-56
2022/05/08 02:30:32;;;;;;;794.73;483.38;;;;;;;10.38;68.81;101216.48;1693759;84;21043;-55
2022/05/08 02:33:00;;;;;;;769.73;465.82;;;;;;;10.35;69.51;101219.39;1693600;84;21046;-55
2022/05/08 02:35:27;;;;;;;768.08;469.93;;;;;;;10.51;70.12;101221.23;1694454;82;21526;-59
2022/05/08 02:37:55;;;;;;;764.02;475.22;;;;;;;10.68;68.72;101227.28;1692965;84;21486;-55
2022/05/08 02:40:23;;;;;;;730.30;459.85;;;;;;;10.74;68.58;101231.88;1694777;82;21376;-58
2022/05/08 02:42:50;;;;;;;740.35;465.08;;;;;;;10.81;68.72;101228.95;1694518;82;20928;-54
2022/05/08 02:45:18;;;;;;;751.98;457.32;;;;;;;10.92;67.89;101235.17;1693474;84;21537;-54
2022/05/08 02:47:46;;;;;;;764.70;469.45;;;;;;;10.96;68.46;101236.48;1693467;82;21008;-55
2022/05/08 02:50:13;;;;;;;737.98;461.50;;;;;;;11.02;68.17;101243.32;1692950;84;21616;-56
2022/05/08 02:52:40;;;;;;;756.47;477.95;;;;;;;11.14;68.78;101245.47;1693180;84;22120;-58
2022/05/08 03:00:42;;;;;;;724.80;447.77;;;;;;;11.74;68.20;101244.27;1694055;82;21008;-57
2022/05/08 03:03:09;;;;;;;732.38;467.50;;;;;;;11.88;69.68;101248.84;1723204;82;20923;-60
2022/05/08 03:05:37;;;;;;;744.37;477.88;;;;;;;12.35;69.34;101239.37;1710127;82;22256;-63
2022/05/08 03:08:05;;;;;;;723.73;469.85;;;;;;;12.76;67.41;101236.05;1701056;82;21101;-57
2022/05/08 03:11:25;;;;;;;731.17;473.07;;;;;;;13.22;63.89;101237.37;1703086;82;21066;-58
2022/05/08 03:13:03;;;;;;;698.17;460.30;;;;;;;13.58;60.44;101235.44;1697724;82;21141;-64
2022/05/08 03:15:31;;;;;;;723.45;477.52;;;;;;;13.94;58.39;101238.19;1702403;82;21070;-56
2022/05/08 03:18:00;;;;;;;694.17;463.72;;;;;;;14.56;55.56;101232.52;1701692;82;22171;-57
2022/05/08 03:20:27;;;;;;;713.10;469.43;;;;;;;14.98;53.87;101235.37;1702412;82;22339;-58
2022/05/08 03:22:54;;;;;;;753.80;492.70;;;;;;;15.63;51.73;101231.64;1701949;82;21500;-58
2022/05/08 03:25:21;;;;;;;720.95;497.43;;;;;;;15.96;50.12;101227.92;1703170;82;20967;-63
2022/05/08 03:27:49;;;;;;;740.62;507.23;;;;;;;16.45;48.27;101229.55;1691764;82;21019;-54
2022/05/08 03:30:16;;;;;;;699.02;483.20;;;;;;;16.54;47.18;101227.53;1701679;82;21315;-63
2022/05/08 03:32:43;;;;;;;719.02;501.40;;;;;;;17.12;45.89;101229.67;1702732;82;21701;-55
2022/05/08 03:35:11;;;;;;;686.97;483.00;;;;;;;17.72;44.68;101222.53;1702435;82;21505;-56
2022/05/08 03:37:39;;;;;;;688.53;493.20;;;;;;;18.42;43.04;101229.33;1702235;82;21237;-56
2022/05/08 03:40:07;;;;;;;657.33;475.23;;;;;;;19.05;41.31;101229.34;1702169;82;21274;-55
2022/05/08 03:42:35;;;;;;;637.90;466.93;;;;;;;19.66;39.77;101226.48;1702288;82;21136;-56
2022/05/08 03:45:03;;;;;;;660.00;474.20;;;;;;;20.12;38.47;101222.54;1702060;82;21754;-54
2022/05/08 03:47:30;;;;;;;648.43;475.97;;;;;;;20.92;36.19;101215.64;1702245;82;21558;-62
2022/05/08 03:49:58;;;;;;;644.77;480.43;;;;;;;20.92;36.19;101215.64;1701816;82;23184;-55
2022/05/08 03:52:25;;;;;;;635.07;468.97;;;;;;;21.11;35.57;101222.98;1703381;82;21833;-55
2022/05/08 03:54:52;;;;;;;676.67;501.30;;;;;;;21.35;34.85;101231.25;1701567;82;21210;-55
2022/05/08 03:57:21;;;;;;;677.13;503.33;;;;;;;21.43;34.29;101227.97;1702122;82;21523;-56
2022/05/08 03:59:49;;;;;;;694.17;506.17;;;;;;;21.66;33.65;101224.49;1691283;82;20959;-62
2022/05/08 04:02:16;;;;;;;722.70;531.20;;;;;;;21.98;32.91;101228.36;1702545;82;21337;-56
2022/05/08 04:04:43;;;;;;;774.53;567.67;;;;;;;22.11;32.44;101233.91;1705151;82;21221;-59
2022/05/08 04:07:13;;;;;;;778.80;566.13;;;;;;;22.02;32.02;101230.84;1693403;82;21225;-55
2022/05/08 04:09:40;;;;;;;803.87;585.50;;;;;;;22.31;31.40;101229.54;1694190;82;20956;-55
2022/05/08 04:12:08;;;;;;;756.67;557.10;;;;;;;22.55;30.94;101235.05;1692761;84;21528;-60
2022/05/08 04:14:36;;;;;;;718.37;547.40;;;;;;;22.97;30.55;101233.92;1694235;82;22046;-56
2022/05/08 04:17:04;;;;;;;760.60;562.73;;;;;;;23.21;30.26;101232.69;1693405;82;21567;-56
2022/05/08 04:19:33;;;;;;;789.90;583.20;;;;;;;23.74;29.59;101232.66;1695021;82;21345;-56
2022/05/08 04:24:43;;;;;;;800.47;599.60;;;;;;;24.30;28.61;101233.86;1669061;84;21110;-57
2022/05/08 04:27:11;;;;;;;846.30;623.60;;;;;;;24.40;28.41;101231.34;1692792;84;20936;-55
2022/05/08 04:29:39;;;;;;;904.47;646.13;;;;;;;24.67;28.07;101224.66;1692157;83;20967;-58
2022/05/08 04:32:07;;;;;;;887.23;642.47;;;;;;;24.92;27.53;101225.38;1694155;82;21356;-57
2022/05/08 04:34:34;;;;;;;887.43;641.43;;;;;;;25.16;26.98;101227.73;1694213;82;21063;-57
2022/05/08 04:37:01;;;;;;;906.73;650.97;;;;;;;25.37;26.48;101232.12;1694018;82;21091;-58
2022/05/08 04:39:28;;;;;;;924.63;662.73;;;;;;;25.36;26.23;101237.20;1692932;84;21004;-65
2022/05/08 04:41:55;;;;;;;926.77;663.07;;;;;;;25.30;26.24;101246.22;1693124;84;21886;-55
2022/05/08 04:44:23;;;;;;;940.43;672.63;;;;;;;25.42;25.59;101246.02;1695046;82;22132;-55
2022/05/08 04:46:50;;;;;;;921.27;663.27;;;;;;;25.40;25.35;101240.95;1693010;84;21040;-55
2022/05/08 04:49:17;;;;;;;924.87;668.33;;;;;;;25.39;24.58;101239.89;1693475;84;21481;-57
2022/05/08 04:51:44;;;;;;;922.20;664.03;;;;;;;25.42;24.69;101240.18;1693008;82;20983;-64
2022/05/08 04:54:12;;;;;;;893.93;655.27;;;;;;;25.47;24.60;101235.39;1694098;82;21078;-54
2022/05/08 04:56:40;;;;;;;855.47;635.83;;;;;;;25.95;24.17;101236.99;1694376;82;21557;-57
2022/05/08 04:59:07;;;;;;;835.80;621.17;;;;;;;26.36;23.55;101237.08;1694883;82;21667;-55
2022/05/08 05:01:35;;;;;;;800.53;607.27;;;;;;;26.70;23.04;101233.94;1694005;82;20999;-63
2022/05/08 05:04:04;;;;;;;785.57;596.37;;;;;;;27.10;22.29;101241.70;1693422;84;21620;-55
2022/05/08 05:06:32;;;;;;;727.53;561.63;;;;;;;27.17;21.89;101234.23;1714440;83;20956;-56
2022/05/08 05:08:59;;;;;;;775.90;586.20;;;;;;;27.38;21.34;101240.33;1722201;81;21182;-56
2022/05/08 05:11:27;;;;;;;778.37;604.43;;;;;;;27.46;21.62;101242.98;1721930;81;21003;-63
2022/05/08 05:13:57;;;;;;;768.70;592.47;;;;;;;27.71;21.68;101234.88;1721382;81;21674;-55
2022/05/08 05:16:25;;;;;;;711.13;562.30;;;;;;;27.48;21.54;101244.33;1722865;81;21129;-56
2022/05/08 05:18:52;;;;;;;678.77;528.33;;;;;;;28.14;21.44;101241.94;1722328;81;21053;-56
2022/05/08 05:21:20;;;;;;;667.33;523.20;;;;;;;28.90;20.16;101240.62;1722910;81;21158;-56
2022/05/08 05:23:49;;;;;;;646.30;518.03;;;;;;;29.09;19.77;101238.06;1709841;81;21023;-56
2022/05/08 05:26:16;;;;;;;633.17;500.33;;;;;;;29.60;19.35;101240.25;1721443;83;21010;-56
2022/05/08 05:28:44;;;;;;;637.57;510.33;;;;;;;29.75;19.03;101234.69;1720579;83;21536;-55
2022/05/08 05:31:12;;;;;;;599.53;477.53;;;;;;;30.12;18.96;101235.00;1721500;83;21551;-56
2022/05/08 05:33:39;;;;;;;620.17;502.50;;;;;;;30.48;18.55;101235.31;1720454;83;22551;-61
2022/05/08 05:36:07;;;;;;;613.90;491.33;;;;;;;30.47;18.32;101232.38;1721509;81;21062;-56
2022/05/08 05:38:34;;;;;;;608.45;493.15;;;;;;;30.60;18.25;101236.99;1721134;83;21011;-55
2022/05/08 05:41:01;;;;;;;605.35;487.62;;;;;;;30.77;18.01;101230.56;1721134;83;21090;-55
2022/05/08 05:43:29;;;;;;;576.27;465.58;;;;;;;30.47;18.18;101235.06;1721724;81;21488;-56
2022/05/08 05:48:42;;;;;;;438.85;339.60;;;;;;;31.41;17.14;101232.67;1721474;81;21038;-54
2022/05/08 05:51:09;;;;;;;416.68;314.82;;;;;;;31.59;16.76;101228.26;1720870;83;21022;-59
2022/05/08 05:53:38;;;;;;;414.87;316.80;;;;;;;32.20;15.92;101225.60;1721478;81;21670;-57
2022/05/08 05:56:05;;;;;;;407.80;316.42;;;;;;;32.67;15.44;101229.63;1721523;81;21047;-57
2022/05/08 05:58:34;;;;;;;424.75;329.50;;;;;;;33.24;15.40;101233.05;1721112;83;21212;-54
2022/05/08 06:01:01;;;;;;;399.02;307.77;;;;;;;33.91;15.04;101222.50;1720878;83;21075;-62
2022/05/08 06:03:28;;;;;;;341.38;261.12;;;;;;;34.20;14.36;101217.02;1722671;81;20967;-62
2022/05/08 06:05:55;;;;;;;358.02;279.93;;;;;;;34.28;13.82;101217.01;1711020;83;21074;-56
2022/05/08 06:08:23;;;;;;;374.52;291.75;;;;;;;34.52;13.71;101220.61;1693600;84;21058;-55
2022/05/08 06:10:50;;;;;;;211.65;164.80;;;;;;;34.72;13.98;101222.39;1694095;82;21565;-54
2022/05/08 06:13:18;;;;;;;283.17;217.05;;;;;;;35.19;13.14;101210.20;1694678;82;21407;-60
2022/05/08 06:15:45;;;;;;;275.55;213.10;;;;;;;35.66;12.58;101210.13;1693488;82;21502;-56
2022/05/08 06:18:12;;;;;;;199.12;153.62;;;;;;;35.93;12.17;101206.09;1694018;82;21004;-55
2022/05/08 06:20:40;;;;;;;198.70;152.50;;;;;;;36.39;11.57;101203.69;1693372;84;21075;-56
2022/05/08 06:23:08;;;;;;;192.77;149.53;;;;;;;36.64;11.09;101201.08;1693440;84;21285;-56
2022/05/08 06:25:35;;;;;;;182.85;142.93;;;;;;;36.93;11.24;101205.51;1693709;82;21146;-61
2022/05/08 06:28:03;;;;;;;125.67;93.58;;;;;;;37.10;10.89;101207.26;1694144;82;21642;-55
2022/05/08 06:30:30;;;;;;;109.45;87.42;;;;;;;36.92;10.21;101205.28;1694283;82;20997;-56
2022/05/08 06:32:58;;;;;;;166.10;123.67;;;;;;;36.37;9.98;101207.32;1693568;84;21070;-56
2022/05/08 06:35:25;;;;;;;145.77;116.03;;;;;;;35.97;10.51;101204.30;1695029;82;21171;-62
2022/05/08 06:37:54;;;;;;;121.67;93.72;;;;;;;36.09;10.46;101207.09;1693355;82;21593;-61
2022/05/08 06:40:23;;;;;;;110.78;86.55;;;;;;;35.60;10.44;101208.16;1693390;84;22022;-56
2022/05/08 06:42:50;;;;;;;105.92;84.15;;;;;;;35.24;10.26;101202.69;1693316;84;20904;-56
2022/05/08 06:45:18;;;;;;;138.07;105.63;;;;;;;35.07;10.50;101202.77;1694133;82;21028;-55
2022/05/08 06:47:46;;;;;;;142.28;105.92;;;;;;;35.04;10.68;101200.16;1693257;82;21272;-55
2022/05/08 06:50:14;;;;;;;103.15;81.42;;;;;;;35.00;10.67;101197.84;1722620;82;21078;-56
2022/05/08 06:52:41;;;;;;;87.12;68.62;;;;;;;35.39;10.61;101205.40;1724105;81;21367;-57
2022/05/08 06:55:08;;;;;;;107.40;84.72;;;;;;;35.50;9.98;101194.44;1723239;82;20948;-55
2022/05/08 06:57:36;;;;;;;92.47;67.05;;;;;;;35.38;10.02;101193.52;1723617;81;20983;-64
2022/05/08 07:02:51;;;;;;;94.28;71.28;;;;;;;35.29;10.26;101185.44;1723496;82;21078;-56
2022/05/08 07:05:18;;;;;;;47.95;39.00;;;;;;;35.17;10.33;101181.28;1723443;81;20979;-59
2022/05/08 07:07:47;;;;;;;38.38;30.25;;;;;;;35.43;9.86;101180.58;1731947;81;20977;-59
2022/05/08 07:10:14;;;;;;;25.37;17.70;;;;;;;35.26;9.98;101179.31;1732235;81;21088;-56
2022/05/08 07:12:42;;;;;;;36.68;25.52;;;;;;;35.06;9.80;101178.15;1733017;81;21160;-56
2022/05/08 07:15:10;;;;;;;39.88;31.05;;;;;;;34.76;9.50;101178.64;1732373;81;20942;-56
2022/05/08 07:17:37;;;;;;;28.05;20.72;;;;;;;34.08;9.96;101174.38;1732398;81;21005;-57
2022/05/08 07:20:07;;;;;;;34.58;24.85;;;;;;;33.76;10.23;101181.05;1732608;81;21040;-58
2022/05/08 07:22:35;;;;;;;46.77;36.23;;;;;;;33.60;10.37;101179.33;1732689;81;22109;-56
2022/05/08 07:25:03;;;;;;;51.95;35.68;;;;;;;33.68;10.26;101173.16;1732258;81;22674;-56
2022/05/08 07:27:32;;;;;;;49.45;36.95;;;;;;;33.85;10.54;101173.72;1732302;81;21040;-56
2022/05/08 07:29:59;;;;;;;52.83;40.40;;;;;;;33.64;10.44;101176.23;1732570;81;21056;-58
2022/05/08 07:32:26;;;;;;;40.75;30.37;;;;;;;33.41;10.49;101175.53;1731748;81;20996;-57
2022/05/08 07:37:41;;;;;;;44.58;31.65;;;;;;;33.27;10.28;101172.19;1733148;81;21294;-55
2022/05/08 07:40:09;;;;;;;66.35;47.73;;;;;;;33.63;10.52;101174.09;1731746;81;20965;-55
2022/05/08 07:42:36;;;;;;;61.80;43.08;;;;;;;33.95;10.21;101171.27;1732952;81;20981;-55
2022/05/08 07:45:07;;;;;;;48.20;34.48;;;;;;;34.52;10.37;101171.88;1717975;83;21056;-55
2022/05/08 07:47:34;;;;;;;57.03;38.30;;;;;;;34.05;9.85;101163.63;1698172;84;21054;-55
2022/05/08 07:50:02;;;;;;;66.62;45.67;;;;;;;33.62;10.13;101159.55;1698038;82;22777;-57
2022/05/08 07:52:29;;;;;;;68.55;46.15;;;;;;;33.45;10.21;101155.42;1698575;82;22018;-58
2022/05/08 07:54:58;;;;;;;84.97;57.58;;;;;;;33.47;10.34;101154.59;1698516;82;20983;-55
2022/05/08 07:57:25;;;;;;;84.77;56.92;;;;;;;33.32;10.61;101148.50;1699869;82;21908;-55
2022/05/08 07:59:52;;;;;;;91.32;61.33;;;;;;;33.22;10.74;101147.99;1699661;82;21078;-55
2022/05/08 08:02:20;;;;;;;110.05;71.67;;;;;;;33.06;10.65;101151.69;1697723;83;21288;-56
2022/05/08 08:04:47;;;;;;;115.12;73.28;;;;;;;32.60;11.12;101153.69;1697948;84;21447;-55
2022/05/08 08:07:14;;;;;;;112.57;75.03;;;;;;;32.43;11.46;101156.30;1699289;82;21061;-56
2022/05/08 08:09:42;;;;;;;114.10;76.22;;;;;;;32.14;11.46;101152.66;1699098;82;21486;-55
2022/05/08 08:12:09;;;;;;;118.77;78.60;;;;;;;32.30;11.50;101153.08;1698898;84;21575;-54
2022/05/08 08:14:36;;;;;;;110.30;74.77;;;;;;;32.46;11.64;101147.02;1699652;82;21990;-57
2022/05/08 08:17:04;;;;;;;100.07;67.75;;;;;;;32.65;11.47;101149.49;1699286;84;21085;-56
2022/05/08 08:19:31;;;;;;;104.70;68.67;;;;;;;32.91;10.99;101140.72;1699875;82;21003;-56
2022/05/08 08:21:59;;;;;;;115.55;78.20;;;;;;;33.20;11.16;101135.36;1699803;82;21528;-55
2022/05/08 08:24:27;;;;;;;114.92;78.40;;;;;;;33.58;11.06;101134.26;1699637;82;20951;-63
2022/05/08 08:26:54;;;;;;;119.72;82.78;;;;;;;33.76;11.09;101132.37;1698905;82;21228;-55
2022/05/08 08:29:21;;;;;;;125.15;82.08;;;;;;;33.69;11.47;101128.78;1699172;82;21070;-58
2022/05/08 08:31:48;;;;;;;119.60;79.65;;;;;;;33.28;11.27;101129.97;1688795;82;21046;-55
2022/05/08 08:34:16;;;;;;;122.67;81.47;;;;;;;32.92;11.44;101135.02;1698656;84;21520;-55
2022/05/08 08:36:43;;;;;;;116.10;79.72;;;;;;;32.57;12.24;101131.35;1698162;82;21098;-61
2022/05/08 08:39:10;;;;;;;104.35;68.70;;;;;;;32.65;12.04;101135.20;1698184;84;22231;-54
2022/05/08 08:41:39;;;;;;;109.70;71.02;;;;;;;32.55;11.60;101130.09;1697737;84;22489;-57
2022/05/08 08:49:52;;;;;;;91.10;58.97;;;;;;;32.05;11.57;101132.91;1699770;82;21015;-56
2022/05/08 08:52:22;;;;;;;87.08;57.80;;;;;;;31.92;11.71;101121.87;1697981;84;22499;-54
2022/05/08 08:54:49;;;;;;;88.52;56.88;;;;;;;32.08;11.66;101127.70;1699687;82;21885;-54
2022/05/08 08:57:16;;;;;;;62.50;42.30;;;;;;;32.09;11.73;101136.61;1698704;84;21058;-57
2022/05/08 08:59:43;;;;;;;68.00;43.00;;;;;;;32.17;11.20;101123.17;1698998;84;21623;-53
2022/05/08 09:02:20;;;;;;;70.43;45.67;;;;;;;31.46;11.61;101119.39;1698203;84;21074;-55
2022/05/08 09:04:51;;;;;;;66.40;44.37;;;;;;;31.68;11.87;101118.64;1699491;82;21802;-56
2022/05/08 09:07:40;;;;;;;66.63;45.70;;;;;;;31.52;11.69;101112.80;1698952;84;20954;-57
2022/05/08 09:10:20;;;;;;;70.67;43.47;;;;;;;31.52;11.90;101117.38;1718803;82;21146;-56
2022/05/08 09:13:01;;;;;;;;;;;;;;;32.10;11.92;101110.67;1710769;82;20894;-55
2022/05/08 09:15:31;;;;;;;60.98;40.85;;;;;;;32.86;11.19;101100.36;1698710;82;20139;-57
2022/05/08 09:18:05;;;;;;;62.80;41.57;;;;;;;32.91;11.13;101092.10;1670378;85;22133;-57
2022/05/08 09:20:43;;;;;;;60.47;41.83;;;;;;;32.91;11.13;101092.10;1724698;83;21552;-58
2022/05/08 09:23:19;;;;;;;53.30;37.03;;;;;;;33.10;10.97;101092.66;1724319;83;21038;-61
2022/05/08 09:26:00;;;;;;;50.07;35.23;;;;;;;33.08;11.00;101093.55;1699229;82;21486;-55
2022/05/08 09:28:41;;;;;;;53.10;36.47;;;;;;;32.36;11.12;101091.15;1698355;83;20988;-55
2022/05/08 09:31:15;;;;;;;47.40;34.47;;;;;;;32.30;11.49;101089.67;1698816;82;22198;-60
2022/05/08 09:33:47;;;;;;;48.13;35.23;;;;;;;32.70;11.09;101089.98;1699260;82;21082;-55
2022/05/08 09:36:24;;;;;;;45.97;32.60;;;;;;;32.71;11.21;101084.02;1699281;82;21564;-55
2022/05/08 09:38:53;;;;;;;49.70;34.80;;;;;;;32.78;10.95;101079.53;1698815;82;20983;-56
2022/05/08 09:41:22;;;;;;;45.77;31.30;;;;;;;32.76;10.68;101081.73;1699515;82;21169;-57
2022/05/08 09:43:51;;;;;;;35.03;25.77;;;;;;;32.87;10.72;101078.43;1707865;83;21245;-55
2022/05/08 09:46:20;;;;;;;36.43;26.73;;;;;;;32.75;10.78;101072.05;1718817;83;21077;-55
2022/05/08 09:48:48;;;;;;;36.20;25.93;;;;;;;32.06;11.63;101077.88;1718501;82;21091;-57
2022/05/08 09:51:16;;;;;;;37.47;27.00;;;;;;;31.65;11.76;101085.00;1719761;82;21044;-56
2022/05/08 09:53:46;;;;;;;36.60;27.23;;;;;;;31.31;11.90;101087.39;1718883;83;21100;-56
2022/05/08 09:56:14;;;;;;;36.65;25.97;;;;;;;31.22;11.97;101087.28;1718564;83;21150;-55
2022/05/08 09:58:41;;;;;;;36.07;23.93;;;;;;;31.02;11.86;101080.41;1718311;82;21008;-59
2022/05/08 10:01:09;;;;;;;31.90;23.50;;;;;;;31.24;12.01;101083.72;1718789;82;20999;-56
2022/05/08 10:03:37;;;;;;;33.73;22.93;;;;;;;31.20;11.77;101076.80;1718780;83;21444;-56
2022/05/08 10:06:04;;;;;;;33.30;22.93;;;;;;;31.40;11.87;101072.09;1718818;83;21044;-57
2022/05/08 10:08:36;;;;;;;33.67;24.17;;;;;;;31.68;11.72;101068.23;1722967;82;22226;-59
2022/05/08 10:13:57;;;;;;;33.97;24.37;;;;;;;32.35;11.46;101067.42;1723891;82;21061;-55
2022/05/08 10:17:02;;;;;;;42.80;30.57;;;;;;;32.76;11.49;101058.22;1723459;82;22000;-56
2022/05/08 10:19:35;;;;;;;48.97;34.17;;;;;;;33.17;10.80;101053.02;1659939;84;20950;-59
2022/05/08 10:22:05;;;;;;;49.37;36.40;;;;;;;33.00;11.08;101054.34;1714054;82;21507;-54
2022/05/08 10:24:40;;;;;;;49.87;34.60;;;;;;;33.32;10.90;101051.21;1724563;82;20932;-54
2022/05/08 10:27:28;;;;;;;50.20;35.03;;;;;;;33.31;11.01;101049.63;1693849;84;22196;-55
2022/05/08 10:30:03;;;;;;;51.43;36.90;;;;;;;33.45;10.91;101044.61;1684587;84;21408;-55
2022/05/08 10:32:37;;;;;;;51.80;36.27;;;;;;;33.35;10.88;101043.03;1695099;82;20844;-57
2022/05/08 10:35:17;;;;;;;54.07;38.63;;;;;;;32.93;10.72;101048.86;1693427;84;21207;-65
2022/05/08 10:37:46;;;;;;;50.93;35.80;;;;;;;32.33;11.11;101048.59;1723757;82;21501;-54
2022/05/08 10:40:28;;;;;;;47.13;35.10;;;;;;;31.80;11.08;101047.45;1724291;82;21040;-56
2022/05/08 10:42:56;;;;;;;49.50;35.80;;;;;;;31.51;11.16;101047.86;1723285;81;20936;-57
2022/05/08 10:45:37;;;;;;;47.60;33.40;;;;;;;31.54;11.43;101043.22;1723938;82;21088;-56
2022/05/08 10:48:15;;;;;;;46.37;33.42;;;;;;;31.45;11.01;101033.72;1724244;81;21134;-56
2022/05/08 10:50:53;;;;;;;52.07;33.83;;;;;;;31.62;11.14;101039.78;1723194;81;22287;-56
2022/05/08 10:53:32;;;;;;;52.77;33.03;;;;;;;31.90;10.90;101031.62;1723554;82;21023;-59
2022/05/08 10:56:06;;;;;;;47.60;33.77;;;;;;;32.14;10.99;101028.02;1722761;82;21059;-57
2022/05/08 10:58:34;;;;;;;49.80;34.70;;;;;;;31.93;10.94;101020.20;1723773;82;21526;-56
2022/05/08 11:01:09;;;;;;;46.47;34.07;;;;;;;31.85;11.09;101015.00;1723669;81;21167;-56
2022/05/08 11:03:38;;;;;;;55.37;37.57;;;;;;;31.92;11.28;101017.27;1722890;82;21011;-59
2022/05/08 11:06:05;;;;;;;51.87;37.47;;;;;;;31.82;11.31;101011.53;1723821;81;21030;-58
2022/05/08 11:08:35;;;;;;;51.50;36.97;;;;;;;31.90;11.25;101012.20;1724158;81;21766;-55
2022/05/08 11:11:09;;;;;;;46.30;32.73;;;;;;;31.82;11.20;101004.00;1723368;82;21003;-56
2022/05/08 11:13:49;;;;;;;45.93;34.73;;;;;;;31.71;11.14;101004.27;1723603;81;21253;-56
2022/05/08 11:16:37;;;;;;;56.90;39.23;;;;;;;31.69;11.24;101002.42;1723326;82;21006;-54
2022/05/08 11:19:05;;;;;;;60.13;43.80;;;;;;;31.19;11.32;101001.70;1722834;81;21078;-61
2022/05/08 11:21:33;;;;;;;54.50;38.93;;;;;;;31.16;11.72;100999.05;1723862;81;21070;-62
2022/05/08 11:24:00;;;;;;;58.13;40.97;;;;;;;31.21;11.33;100999.48;1723828;82;21089;-55
2022/05/08 11:26:33;;;;;;;55.83;38.90;;;;;;;31.19;12.05;100994.96;1723835;82;21254;-55
2022/05/08 11:29:01;;;;;;;56.87;40.73;;;;;;;31.43;11.22;100990.66;1722155;82;20983;-57
2022/05/08 11:31:29;;;;;;;58.57;41.60;;;;;;;31.54;11.09;100987.97;1724611;81;21483;-54
2022/05/08 11:36:44;;;;;;;67.53;45.03;;;;;;;31.84;10.98;100982.37;1693735;84;21063;-55